Time;durP1;ratioP1;P1;durP2;ratioP2;P2;SDS_P1;SDS_P2;PMS_P1;PMS_P2;Temp;Humidity;BMP_temperature;BMP_pressure;BME280_temperature;BME280_humidity;BME280_pressure;Samples;Min_cycle;Max_cycle;Signal;HPM_P1;HPM_P2
2022/03/16 00:02:19;;;;;;;;;21.00;17.25;;;;;13.41;69.04;101300.41;6271709;22;46956;-76
2022/03/16 00:04:47;;;;;;;;;25.00;19.00;;;;;13.47;68.75;101304.41;6271142;22;47085;-76
2022/03/16 00:07:12;;;;;;;;;20.25;17.50;;;;;13.44;68.72;101301.03;6271404;22;45574;-76
2022/03/16 00:09:38;;;;;;;;;19.75;18.50;;;;;13.42;69.23;101308.22;6271789;22;45486;-75
2022/03/16 00:12:04;;;;;;;;;23.50;18.00;;;;;13.41;69.09;101309.16;6270828;22;46425;-74
2022/03/16 00:14:30;;;;;;;;;19.75;18.75;;;;;13.38;68.79;101309.41;6269384;22;45993;-75
2022/03/16 00:20:17;;;;;;;;;21.00;17.50;;;;;13.26;69.27;101285.72;6271203;22;45483;-76
2022/03/16 00:22:43;;;;;;;;;21.50;19.50;;;;;13.35;69.22;101304.34;6271669;22;46114;-75
2022/03/16 00:25:09;;;;;;;;;21.75;20.50;;;;;13.36;69.19;101302.53;6271304;22;46028;-76
2022/03/16 00:27:34;;;;;;;;;21.50;18.00;;;;;13.35;68.88;101309.59;6272159;22;45539;-76
2022/03/16 00:30:00;;;;;;;;;20.50;17.00;;;;;13.37;68.91;101306.88;6271589;22;45475;-75
2022/03/16 00:32:25;;;;;;;;;20.00;19.00;;;;;13.38;69.26;101306.75;6271974;22;46088;-74
2022/03/16 00:34:51;;;;;;;;;12.25;10.75;;;;;13.41;69.18;101306.53;6272034;22;46006;-75
2022/03/16 00:37:16;;;;;;;;;14.25;12.25;;;;;13.40;68.86;101310.09;6271638;22;45508;-77
2022/03/16 00:39:41;;;;;;;;;18.75;18.00;;;;;13.41;68.80;101303.06;6270936;22;45676;-76
2022/03/16 00:42:07;;;;;;;;;19.50;18.50;;;;;13.43;68.77;101303.78;6271121;22;47336;-75
2022/03/16 00:44:35;;;;;;;;;21.25;19.75;;;;;13.40;68.91;101296.09;6271244;22;45896;-76
2022/03/16 00:50:22;;;;;;;;;22.00;19.25;;;;;13.45;68.97;101301.88;6271141;22;45722;-75
2022/03/16 00:52:48;;;;;;;;;21.75;18.00;;;;;13.45;69.14;101291.34;6270925;22;46489;-76
2022/03/16 00:55:13;;;;;;;;;20.75;18.25;;;;;13.45;68.69;101284.28;6272003;22;46071;-76
2022/03/16 00:57:39;;;;;;;;;21.00;18.50;;;;;13.47;68.90;101288.59;6271910;22;45688;-75
2022/03/16 01:00:06;;;;;;;;;21.50;17.00;;;;;13.45;68.81;101280.81;6245346;22;45617;-77
2022/03/16 01:05:53;;;;;;;;;19.00;18.25;;;;;13.44;69.19;101282.59;6271616;22;46013;-77
2022/03/16 01:08:18;;;;;;;;;17.00;16.00;;;;;13.42;68.66;101275.78;6272073;22;45671;-76
2022/03/16 01:10:44;;;;;;;;;18.25;16.25;;;;;13.40;68.84;101273.25;6271679;22;45718;-77
2022/03/16 01:13:10;;;;;;;;;20.75;19.75;;;;;13.40;68.85;101270.63;6270979;22;47246;-76
2022/03/16 01:15:36;;;;;;;;;19.00;18.25;;;;;13.43;68.85;101262.53;6270789;22;46302;-77
2022/03/16 01:18:01;;;;;;;;;20.25;18.00;;;;;13.46;68.99;101277.25;6271712;22;45737;-76
2022/03/16 01:20:27;;;;;;;;;21.00;20.25;;;;;13.43;68.97;101265.16;6270937;22;45507;-76
2022/03/16 01:22:53;;;;;;;;;21.00;18.25;;;;;13.45;68.73;101260.59;6270776;22;47188;-76
2022/03/16 01:25:18;;;;;;;;;22.50;17.50;;;;;13.45;68.50;101257.97;6270697;22;46118;-76
2022/03/16 01:27:43;;;;;;;;;18.25;17.75;;;;;13.43;68.58;101245.88;6244206;22;45474;-75
2022/03/16 01:30:11;;;;;;;;;19.75;17.50;;;;;13.42;68.56;101245.03;6271327;22;45944;-76
2022/03/16 01:35:58;;;;;;;;;21.75;19.75;;;;;13.41;68.47;101240.72;6271567;22;45703;-74
2022/03/16 01:38:23;;;;;;;;;22.75;19.00;;;;;13.43;68.99;101241.47;6243323;22;45445;-75
2022/03/16 01:40:49;;;;;;;;;22.75;20.75;;;;;13.43;68.89;101238.00;6271541;22;45762;-74
2022/03/16 01:43:14;;;;;;;;;19.00;17.75;;;;;13.34;68.92;101221.06;6244360;22;46681;-76
2022/03/16 01:45:47;;;;;;;;;21.00;17.50;;;;;13.40;68.73;101243.47;6271402;22;45641;-77
2022/03/16 01:48:12;;;;;;;;;25.00;22.00;;;;;13.38;68.44;101240.97;6271216;22;45908;-76
2022/03/16 01:50:38;;;;;;;;;19.25;16.50;;;;;13.33;68.98;101235.16;6271061;22;45435;-74
2022/03/16 01:53:03;;;;;;;;;19.50;18.25;;;;;13.35;69.01;101240.31;6271094;22;46596;-75
2022/03/16 01:55:29;;;;;;;;;20.25;18.00;;;;;13.34;68.98;101238.63;6271306;22;45938;-75
2022/03/16 01:57:55;;;;;;;;;18.75;17.50;;;;;13.34;68.80;101249.16;6272030;22;45534;-77
2022/03/16 02:00:22;;;;;;;;;18.75;16.50;;;;;13.33;68.66;101244.88;6271571;22;45499;-76
2022/03/16 02:06:09;;;;;;;;;19.00;18.00;;;;;13.37;68.59;101247.16;6271200;22;46066;-75
2022/03/16 02:08:40;;;;;;;;;22.75;20.00;;;;;13.34;68.46;101239.47;6271638;22;45499;-77
2022/03/16 02:11:06;;;;;;;;;17.25;16.25;;;;;13.34;68.74;101242.09;6270373;22;45546;-75
2022/03/16 02:13:34;;;;;;;;;19.25;16.75;;;;;13.33;68.65;101244.88;6271209;22;45619;-77
2022/03/16 02:16:00;;;;;;;;;18.25;17.25;;;;;13.33;68.40;101240.44;6271308;22;45448;-76
2022/03/16 02:18:25;;;;;;;;;19.00;17.25;;;;;13.29;68.45;101238.97;6271085;22;45571;-76
2022/03/16 02:20:51;;;;;;;;;20.25;16.25;;;;;13.31;68.66;101242.34;6270090;22;45728;-76
2022/03/16 02:23:17;;;;;;;;;16.50;14.25;;;;;13.32;68.38;101244.03;6270712;22;46283;-75
2022/03/16 02:25:53;;;;;;;;;19.25;16.00;;;;;13.30;68.19;101242.44;6270816;22;46096;-76
2022/03/16 02:28:21;;;;;;;;;21.00;21.00;;;;;13.28;68.56;101242.56;6271385;22;45705;-75
2022/03/16 02:30:47;;;;;;;;;19.50;17.00;;;;;13.22;68.46;101227.22;6271100;22;45851;-77
2022/03/16 02:36:34;;;;;;;;;18.25;16.75;;;;;13.23;68.25;101228.88;6271338;22;45789;-76
2022/03/16 02:38:59;;;;;;;;;19.75;18.25;;;;;13.19;68.35;101223.97;6271228;22;45704;-76
2022/03/16 02:41:24;;;;;;;;;22.75;18.00;;;;;13.14;68.45;101212.94;6270883;22;45514;-76
2022/03/16 02:43:50;;;;;;;;;19.00;17.00;;;;;13.20;68.73;101223.00;6271488;22;45493;-73
2022/03/16 02:46:17;;;;;;;;;17.75;17.50;;;;;13.18;68.52;101214.38;6270288;22;46282;-76
2022/03/16 02:48:42;;;;;;;;;18.50;17.50;;;;;13.17;68.55;101223.25;6271460;22;45759;-76
2022/03/16 02:51:09;;;;;;;;;19.00;16.50;;;;;13.15;68.63;101223.34;6270600;22;45571;-76
2022/03/16 02:53:35;;;;;;;;;21.25;20.75;;;;;13.15;68.21;101219.88;6270517;22;46891;-76
2022/03/16 02:56:00;;;;;;;;;16.25;16.00;;;;;13.13;68.66;101214.72;6271201;22;45555;-76
2022/03/16 02:58:25;;;;;;;;;17.00;15.00;;;;;13.14;68.33;101219.03;6270772;22;45620;-74
2022/03/16 03:00:51;;;;;;;;;18.00;17.25;;;;;13.13;68.28;101212.09;6270413;22;45868;-75
2022/03/16 03:06:38;;;;;;;;;16.00;14.75;;;;;13.13;68.61;101219.97;6270932;22;46007;-76
2022/03/16 03:09:03;;;;;;;;;20.75;18.75;;;;;13.11;68.08;101218.41;6270407;22;45650;-76
2022/03/16 03:11:30;;;;;;;;;30.75;25.50;;;;;13.03;68.23;101208.41;6271065;22;45584;-75
2022/03/16 03:13:55;;;;;;;;;36.50;31.25;;;;;13.11;68.31;101216.59;6271128;22;46237;-75
2022/03/16 03:16:20;;;;;;;;;35.50;32.25;;;;;13.12;68.48;101222.75;6270271;22;46090;-75
2022/03/16 03:22:07;;;;;;;;;43.25;37.50;;;;;13.11;68.71;101227.13;6270877;22;45604;-77
2022/03/16 03:24:33;;;;;;;;;44.25;36.75;;;;;13.11;68.36;101228.91;6270830;22;46349;-76
2022/03/16 03:26:58;;;;;;;;;42.25;36.75;;;;;13.09;68.67;101220.28;6270392;22;45627;-77
2022/03/16 03:29:24;;;;;;;;;43.75;35.00;;;;;13.04;68.44;101210.94;6269995;22;45541;-76
2022/03/16 03:31:49;;;;;;;;;49.50;37.00;;;;;13.09;68.72;101215.03;6271845;22;45396;-75
2022/03/16 03:34:15;;;;;;;;;46.00;36.00;;;;;13.04;68.80;101208.31;6271641;22;46640;-77
2022/03/16 03:36:40;;;;;;;;;36.25;33.50;;;;;13.10;68.62;101222.81;6272350;22;45559;-75
2022/03/16 03:39:06;;;;;;;;;44.25;36.75;;;;;13.10;68.68;101230.72;6271150;22;45601;-74
2022/03/16 03:41:31;;;;;;;;;42.25;34.50;;;;;13.11;68.65;101221.03;6272164;22;45855;-73
2022/03/16 03:43:57;;;;;;;;;34.75;33.75;;;;;13.08;68.38;101223.84;6271462;22;46252;-75
2022/03/16 03:46:22;;;;;;;;;34.25;32.00;;;;;13.07;68.72;101225.66;6272207;22;45439;-76
2022/03/16 03:52:10;;;;;;;;;32.75;30.50;;;;;13.02;68.66;101222.50;6271779;22;45483;-73
2022/03/16 03:54:36;;;;;;;;;35.25;28.25;;;;;13.02;68.74;101219.88;6271025;22;47509;-75
2022/03/16 03:57:02;;;;;;;;;28.25;24.25;;;;;13.03;68.60;101224.19;6271074;22;47196;-74
2022/03/16 03:59:27;;;;;;;;;26.50;22.50;;;;;13.02;69.00;101220.72;6271813;22;45809;-74
2022/03/16 04:01:53;;;;;;;;;28.00;26.00;;;;;12.99;68.46;101218.31;6271714;22;45707;-75
2022/03/16 04:04:19;;;;;;;;;25.25;23.25;;;;;12.98;68.48;101218.41;6271923;22;46190;-74
2022/03/16 04:06:45;;;;;;;;;30.75;25.00;;;;;12.99;68.78;101213.06;6271760;22;45507;-75
2022/03/16 04:09:11;;;;;;;;;27.50;25.50;;;;;12.96;68.72;101209.78;6271290;22;46036;-74
2022/03/16 04:11:37;;;;;;;;;28.00;27.75;;;;;12.97;68.73;101199.16;6271047;22;45741;-74
2022/03/16 04:14:03;;;;;;;;;28.50;23.75;;;;;12.97;68.79;101208.84;6271811;22;45640;-76
2022/03/16 04:16:28;;;;;;;;;25.50;24.25;;;;;12.94;68.74;101201.19;6272109;22;45498;-76
2022/03/16 04:22:15;;;;;;;;;26.75;24.75;;;;;12.88;68.84;101196.34;6271926;22;45485;-77
2022/03/16 04:24:41;;;;;;;;;24.75;19.75;;;;;12.88;68.81;101185.84;6271710;22;45592;-74
2022/03/16 04:27:07;;;;;;;;;26.25;23.00;;;;;12.82;69.06;101189.75;6271522;22;46194;-74
2022/03/16 04:29:33;;;;;;;;;25.50;23.25;;;;;12.86;69.14;101183.31;6270759;22;45566;-74
2022/03/16 04:31:58;;;;;;;;;22.00;18.75;;;;;12.86;69.02;101187.72;6272052;22;45459;-74
2022/03/16 04:34:24;;;;;;;;;27.50;24.00;;;;;12.86;68.93;101190.34;6243771;22;47548;-73
2022/03/16 04:36:49;;;;;;;;;29.00;24.00;;;;;12.80;69.10;101186.38;6270860;22;46243;-73
2022/03/16 04:39:16;;;;;;;;;31.25;24.75;;;;;12.85;69.16;101180.78;6243510;22;45904;-72
2022/03/16 04:41:42;;;;;;;;;29.25;24.75;;;;;12.82;68.85;101170.50;6271679;22;45607;-72
2022/03/16 04:44:07;;;;;;;;;24.00;22.25;;;;;12.82;68.86;101170.50;6271561;22;45866;-73
2022/03/16 04:46:33;;;;;;;;;22.75;18.25;;;;;12.80;69.01;101169.75;6271602;22;45960;-73
2022/03/16 04:52:20;;;;;;;;;28.50;22.00;;;;;12.78;69.16;101166.41;6271418;22;45602;-74
2022/03/16 04:54:45;;;;;;;;;25.50;24.25;;;;;12.78;68.90;101172.50;6271532;22;45674;-74
2022/03/16 04:57:10;;;;;;;;;28.75;25.00;;;;;12.75;68.94;101180.59;6271405;22;45554;-74
2022/03/16 04:59:36;;;;;;;;;23.25;21.50;;;;;12.75;69.44;101190.28;6243637;22;45527;-74
2022/03/16 05:02:01;;;;;;;;;23.75;20.50;;;;;12.72;69.19;101187.88;6270490;22;45436;-74
2022/03/16 05:07:48;;;;;;;;;23.75;20.00;;;;;12.66;69.27;101181.25;6271160;22;45755;-73
2022/03/16 05:10:14;;;;;;;;;27.75;23.50;;;;;12.63;69.02;101174.41;6270639;22;45413;-73
2022/03/16 05:12:41;;;;;;;;;24.75;24.50;;;;;12.63;69.29;101166.53;6270441;22;45688;-73
2022/03/16 05:15:10;;;;;;;;;24.50;21.75;;;;;12.63;69.29;101169.16;6270665;22;46478;-76
2022/03/16 05:17:38;;;;;;;;;25.25;23.25;;;;;12.60;69.35;101172.03;6271452;22;45921;-73
2022/03/16 05:20:04;;;;;;;;;28.25;23.75;;;;;12.59;69.79;101172.97;6271176;22;45498;-74
2022/03/16 05:22:30;;;;;;;;;23.25;22.00;;;;;12.56;69.74;101169.72;6271642;22;45841;-74
2022/03/16 05:24:55;;;;;;;;;26.75;23.00;;;;;12.56;69.76;101178.44;6270600;22;46990;-74
2022/03/16 05:27:21;;;;;;;;;27.00;24.50;;;;;12.53;69.84;101176.00;6271522;22;45927;-73
2022/03/16 05:29:47;;;;;;;;;21.25;20.75;;;;;12.52;69.61;101182.22;6270231;22;45503;-73
2022/03/16 05:32:13;;;;;;;;;29.00;24.50;;;;;12.46;69.74;101181.81;6271024;22;45668;-73
2022/03/16 05:38:02;;;;;;;;;22.75;19.50;;;;;12.47;69.85;101192.22;6270940;22;45696;-73
2022/03/16 05:40:28;;;;;;;;;22.00;21.00;;;;;12.46;69.75;101198.44;6270696;22;45765;-73
2022/03/16 05:42:54;;;;;;;;;23.00;20.75;;;;;12.45;69.92;101202.00;6269573;22;45668;-76
2022/03/16 05:45:19;;;;;;;;;22.25;21.50;;;;;12.41;69.64;101195.28;6269029;22;48273;-76
2022/03/16 05:47:44;;;;;;;;;23.75;18.25;;;;;12.43;70.04;101203.03;6270499;22;46010;-76
2022/03/16 05:50:10;;;;;;;;;26.00;23.25;;;;;12.40;70.06;101198.00;6270752;22;45526;-76
2022/03/16 05:52:36;;;;;;;;;25.50;24.50;;;;;12.40;70.17;101190.13;6271570;22;45759;-75
2022/03/16 05:55:01;;;;;;;;;26.00;22.50;;;;;12.40;69.97;101198.84;6271359;22;46652;-74
2022/03/16 05:57:27;;;;;;;;;30.00;26.75;;;;;12.38;69.92;101198.13;6270831;22;47045;-75
2022/03/16 05:59:52;;;;;;;;;28.25;26.00;;;;;12.37;69.94;101200.84;6270726;22;45833;-74
2022/03/16 06:02:18;;;;;;;;;29.00;24.25;;;;;12.34;69.93;101194.03;6243395;22;45572;-75
2022/03/16 06:08:05;;;;;;;;;29.50;24.25;;;;;12.37;69.89;101198.22;6271345;22;46138;-72
2022/03/16 06:10:31;;;;;;;;;28.50;24.75;;;;;12.37;69.92;101199.06;6270213;22;45896;-75
2022/03/16 06:12:57;;;;;;;;;29.25;24.25;;;;;12.36;69.94;101207.06;6271090;22;45871;-75
2022/03/16 06:15:24;;;;;;;;;25.25;20.00;;;;;12.32;70.05;101201.16;6271730;22;46316;-74
2022/03/16 06:17:57;;;;;;;;;30.50;25.75;;;;;12.29;70.17;101198.75;6270329;22;47093;-75
2022/03/16 06:20:23;;;;;;;;;27.25;23.75;;;;;12.31;70.21;101203.91;6270298;22;45589;-75
2022/03/16 06:22:48;;;;;;;;;28.00;25.75;;;;;12.33;70.27;101196.75;6270593;22;45952;-74
2022/03/16 06:25:14;;;;;;;;;29.25;23.50;;;;;12.17;70.27;101179.41;6268410;22;48407;-76
2022/03/16 06:27:40;;;;;;;;;28.25;24.25;;;;;12.27;70.17;101192.75;6270646;22;47259;-76
2022/03/16 06:30:07;;;;;;;;;29.50;23.00;;;;;12.28;70.73;101206.72;6270800;22;45621;-76
2022/03/16 06:32:32;;;;;;;;;25.25;24.25;;;;;12.29;70.29;101211.91;6271365;22;45857;-76
2022/03/16 06:38:19;;;;;;;;;29.75;27.00;;;;;12.28;70.33;101209.38;6270711;22;46155;-76
2022/03/16 06:40:46;;;;;;;;;24.50;22.75;;;;;12.22;70.27;101202.75;6271201;22;45608;-76
2022/03/16 06:43:11;;;;;;;;;25.75;22.25;;;;;12.27;70.23;101207.66;6270885;22;45612;-76
2022/03/16 06:45:37;;;;;;;;;26.50;24.00;;;;;12.28;70.60;101225.13;6270499;22;46336;-76
2022/03/16 06:48:03;;;;;;;;;26.75;24.00;;;;;12.25;70.20;101220.09;6270780;22;47363;-76
2022/03/16 06:50:28;;;;;;;;;30.25;24.75;;;;;12.26;70.23;101225.22;6269910;22;45628;-78
2022/03/16 06:52:56;;;;;;;;;25.50;23.75;;;;;12.32;70.41;101231.84;6271150;22;45638;-77
2022/03/16 06:55:21;;;;;;;;;28.25;26.00;;;;;12.33;70.66;101234.38;6270237;22;46562;-76
2022/03/16 06:57:47;;;;;;;;;31.00;30.00;;;;;12.35;70.49;101239.53;6270062;22;46800;-74
2022/03/16 07:00:13;;;;;;;;;30.75;27.25;;;;;12.29;70.47;101237.31;6268448;22;45728;-76
2022/03/16 07:02:54;;;;;;;;;29.00;26.00;;;;;12.38;70.18;101244.56;6270457;22;45675;-76
2022/03/16 07:08:41;;;;;;;;;34.25;28.50;;;;;12.37;70.47;101235.84;6269980;22;45662;-75
2022/03/16 07:11:09;;;;;;;;;27.50;25.75;;;;;12.35;70.48;101231.66;6270149;22;45568;-74
2022/03/16 07:13:35;;;;;;;;;27.50;25.25;;;;;12.39;70.45;101235.75;6270327;22;45566;-75
2022/03/16 07:16:00;;;;;;;;;31.50;27.50;;;;;12.37;70.61;101229.75;6271150;22;45568;-75
2022/03/16 07:18:26;;;;;;;;;31.75;28.00;;;;;12.42;70.38;101230.25;6270597;22;45557;-75
2022/03/16 07:20:51;;;;;;;;;25.25;24.50;;;;;12.42;70.22;101236.38;6271329;22;45686;-75
2022/03/16 07:23:18;;;;;;;;;31.25;26.25;;;;;12.43;70.47;101235.44;6270879;22;45771;-75
2022/03/16 07:25:50;;;;;;;;;27.00;25.00;;;;;12.47;70.32;101236.06;6269920;22;47412;-75
2022/03/16 07:28:18;;;;;;;;;33.00;25.75;;;;;12.49;70.50;101237.63;6269489;22;46979;-78
2022/03/16 07:30:44;;;;;;;;;30.25;28.00;;;;;12.47;70.23;101231.63;6243128;22;45545;-77
2022/03/16 07:33:10;;;;;;;;;33.75;31.75;;;;;12.52;69.90;101236.59;6271328;22;45431;-77
2022/03/16 07:38:57;;;;;;;;;31.75;28.50;;;;;12.49;70.15;101228.91;6271001;22;45763;-77
2022/03/16 07:41:22;;;;;;;;;36.75;31.50;;;;;12.57;70.28;101240.59;6271388;22;45534;-77
2022/03/16 07:43:48;;;;;;;;;38.25;29.50;;;;;12.65;69.92;101237.41;6269399;22;45909;-78
2022/03/16 07:46:13;;;;;;;;;26.00;24.00;;;;;12.66;69.83;101240.88;6271004;22;46335;-77
2022/03/16 07:48:43;;;;;;;;;35.25;27.50;;;;;12.68;70.21;101239.00;6242863;22;48062;-77
2022/03/16 07:51:09;;;;;;;;;33.00;31.00;;;;;12.61;69.95;101221.03;6271820;22;45883;-76
2022/03/16 07:53:34;;;;;;;;;30.50;26.75;;;;;12.71;69.91;101246.66;6271331;22;45448;-77
2022/03/16 07:56:00;;;;;;;;;34.50;31.75;;;;;12.61;69.73;101221.03;6272089;22;46335;-78
2022/03/16 07:58:25;;;;;;;;;30.50;28.50;;;;;12.65;69.67;101228.69;6271942;22;45530;-77
2022/03/16 08:00:51;;;;;;;;;29.75;26.00;;;;;12.73;69.86;101236.88;6271764;22;45514;-76
2022/03/16 08:03:16;;;;;;;;;30.50;28.25;;;;;12.74;69.64;101238.56;6271559;22;45613;-75
2022/03/16 08:09:03;;;;;;;;;29.50;26.00;;;;;12.74;69.62;101239.38;6270542;22;45641;-79
2022/03/16 08:11:29;;;;;;;;;26.50;22.50;;;;;12.75;69.82;101229.72;6270882;22;45532;-77
2022/03/16 08:13:54;;;;;;;;;30.50;28.00;;;;;12.73;69.54;101227.22;6271376;22;45451;-78
2022/03/16 08:16:20;;;;;;;;;37.50;27.75;;;;;12.74;69.74;101228.88;6270834;22;46487;-77
2022/03/16 08:18:45;;;;;;;;;31.25;27.25;;;;;12.67;69.62;101211.03;6271756;22;45523;-79
2022/03/16 08:24:32;;;;;;;;;30.50;28.00;;;;;12.71;69.54;101215.13;6272312;22;45557;-76
2022/03/16 08:26:57;;;;;;;;;27.50;26.75;;;;;12.71;69.31;101225.63;6271959;22;45369;-75
2022/03/16 08:29:22;;;;;;;;;31.25;24.50;;;;;12.72;69.82;101222.06;6271674;22;45969;-77
2022/03/16 08:31:48;;;;;;;;;30.50;25.75;;;;;12.74;69.13;101225.44;6271525;22;45624;-77
2022/03/16 08:34:14;;;;;;;;;26.25;23.25;;;;;12.74;69.31;101220.16;6271288;22;45495;-77
2022/03/16 08:36:39;;;;;;;;;31.00;29.75;;;;;12.77;69.51;101226.03;6271283;22;45557;-76
2022/03/16 08:39:05;;;;;;;;;30.00;29.00;;;;;12.74;69.54;101220.16;6270253;22;46111;-76
2022/03/16 08:41:35;;;;;;;;;34.50;27.00;;;;;12.61;69.48;101207.03;6271423;22;45577;-77
2022/03/16 08:44:02;;;;;;;;;36.75;30.00;;;;;12.83;69.29;101240.56;6270973;22;45637;-74
2022/03/16 08:46:28;;;;;;;;;32.75;28.50;;;;;12.73;69.17;101218.47;6271352;22;46307;-77
2022/03/16 08:48:53;;;;;;;;;36.75;29.25;;;;;12.90;68.97;101252.34;6270526;22;45628;-77
2022/03/16 08:54:41;;;;;;;;;29.50;25.25;;;;;12.94;68.88;101238.00;6272200;22;45825;-78
2022/03/16 08:57:10;;;;;;;;;34.00;28.00;;;;;12.82;68.69;101217.81;6269914;22;48309;-77
2022/03/16 08:59:37;;;;;;;;;32.75;29.00;;;;;13.00;68.88;101250.72;6271252;22;46383;-77
2022/03/16 09:02:03;;;;;;;;;28.75;27.50;;;;;13.04;68.98;101260.06;6270957;22;45536;-80
2022/03/16 09:04:30;;;;;;;;;31.50;28.75;;;;;13.05;68.43;101261.75;6271675;22;45546;-85
2022/03/16 09:06:56;;;;;;;;;35.00;30.50;;;;;12.99;68.50;101249.03;6269465;22;47429;-82
2022/03/16 09:09:21;;;;;;;;;28.25;26.00;;;;;13.08;68.79;101258.06;6268717;22;46962;-80
2022/03/16 09:11:48;;;;;;;;;30.00;28.25;;;;;13.03;68.51;101246.06;6270859;22;45441;-79
2022/03/16 09:14:14;;;;;;;;;34.00;31.50;;;;;13.18;68.38;101257.31;6271631;22;45506;-77
2022/03/16 09:16:40;;;;;;;;;32.50;30.75;;;;;13.22;68.61;101261.44;6271373;22;46265;-79
2022/03/16 09:19:05;;;;;;;;;28.50;26.50;;;;;13.24;68.33;101261.31;6270932;22;45649;-76
2022/03/16 09:24:52;;;;;;;;;37.00;32.75;;;;;13.23;68.01;101235.94;6271997;22;45539;-75
2022/03/16 09:27:17;;;;;;;;;36.50;33.00;;;;;13.33;68.35;101248.31;6272244;22;45426;-78
2022/03/16 09:29:46;;;;;;;;;32.25;30.75;;;;;13.35;68.27;101248.22;6271629;22;45511;-77
2022/03/16 09:32:12;;;;;;;;;32.00;31.50;;;;;13.39;67.72;101255.78;6272348;22;45527;-76
2022/03/16 09:34:38;;;;;;;;;32.50;30.50;;;;;13.27;67.92;101237.41;6272633;22;45530;-77
2022/03/16 09:40:25;;;;;;;;;32.00;27.00;;;;;13.42;67.88;101252.09;6271900;22;45581;-76
2022/03/16 09:42:52;;;;;;;;;33.00;28.75;;;;;13.48;67.68;101256.06;6271566;22;45753;-77
2022/03/16 09:45:20;;;;;;;;;30.25;26.25;;;;;13.52;67.61;101254.91;6272638;22;45444;-77
2022/03/16 09:47:47;;;;;;;;;34.50;28.25;;;;;13.55;67.46;101252.88;6272421;22;46461;-77
2022/03/16 09:50:13;;;;;;;;;36.75;33.00;;;;;13.56;67.53;101251.91;6273713;22;45398;-78
2022/03/16 09:52:40;;;;;;;;;33.75;32.25;;;;;13.60;67.30;101249.94;6273779;22;45459;-78
2022/03/16 09:55:06;;;;;;;;;35.25;31.25;;;;;13.63;67.30;101241.78;6272739;22;45557;-77
2022/03/16 09:57:34;;;;;;;;;33.25;31.00;;;;;13.55;67.16;101220.47;6272382;22;45648;-77
2022/03/16 10:00:01;;;;;;;;;33.25;29.00;;;;;13.68;67.14;101235.22;6272513;22;46543;-76
2022/03/16 10:02:27;;;;;;;;;37.25;32.00;;;;;13.71;67.21;101237.63;6271947;22;45481;-78
2022/03/16 10:04:53;;;;;;;;;36.00;32.75;;;;;13.72;67.54;101226.13;6272133;22;45562;-77
2022/03/16 10:13:26;;;;;;;;;39.00;36.50;;;;;13.90;67.29;101246.81;6272448;22;45585;-78
2022/03/16 10:15:55;;;;;;;;;35.00;31.50;;;;;13.88;67.12;101228.47;6271694;22;45447;-76
2022/03/16 10:18:22;;;;;;;;;34.50;32.00;;;;;13.97;67.02;101237.50;6271194;22;46803;-77
2022/03/16 10:20:48;;;;;;;;;33.75;30.75;;;;;14.01;67.01;101231.88;6271265;22;46360;-76
2022/03/16 10:23:21;;;;;;;;;36.25;32.25;;;;;14.07;66.82;101230.56;6271342;22;45422;-78
2022/03/16 10:25:52;;;;;;;;;38.25;32.50;;;;;14.11;66.75;101227.59;6271732;22;45689;-77
2022/03/16 10:28:32;;;;;;;;;30.50;29.00;;;;;14.18;66.51;101233.22;6271115;22;47512;-77
2022/03/16 10:31:08;;;;;;;;;37.00;32.75;;;;;14.23;66.58;101237.19;6271559;22;46757;-77
2022/03/16 10:33:45;;;;;;;;;36.50;32.75;;;;;14.25;66.21;101229.19;6272084;22;45600;-78
2022/03/16 10:36:12;;;;;;;;;41.00;35.50;;;;;14.32;66.23;101233.00;6269870;22;45865;-78
2022/03/16 10:38:39;;;;;;;;;40.75;36.00;;;;;14.32;66.33;101222.47;6270859;22;46280;-76
2022/03/16 10:46:59;;;;;;;;;35.25;32.75;;;;;14.54;65.98;101219.03;6272403;22;45365;-79
2022/03/16 10:49:30;;;;;;;;;39.50;34.25;;;;;14.54;65.86;101214.59;6270847;22;47007;-77
2022/03/16 10:52:09;;;;;;;;;35.25;31.50;;;;;14.62;65.76;101217.50;6269891;22;46550;-77
2022/03/16 10:54:36;;;;;;;;;35.75;31.00;;;;;14.67;65.65;101219.78;6269607;22;45805;-78
2022/03/16 10:57:03;;;;;;;;;39.50;34.50;;;;;14.70;65.41;101209.81;6271442;22;45550;-78
2022/03/16 10:59:31;;;;;;;;;30.50;28.00;;;;;14.72;65.55;101193.03;6270967;22;47078;-77
2022/03/16 11:02:16;;;;;;;;;33.00;30.50;;;;;14.85;65.52;101193.72;6271971;22;46146;-77
2022/03/16 11:04:44;;;;;;;;;37.00;31.75;;;;;14.89;65.16;101190.75;6271126;22;45572;-78
2022/03/16 11:07:10;;;;;;;;;43.00;32.75;;;;;14.95;64.85;101184.13;6271127;22;45519;-78
2022/03/16 11:09:37;;;;;;;;;32.50;30.50;;;;;15.02;64.90;101180.03;6270933;22;45392;-77
2022/03/16 11:14:50;;;;;;;;;37.50;33.00;;;;;15.10;64.60;101180.25;6248156;22;45745;-78
2022/03/16 11:17:16;;;;;;;;;34.75;30.50;;;;;15.13;64.55;101180.84;6271102;22;45878;-77
2022/03/16 11:19:44;;;;;;;;;36.50;31.00;;;;;15.18;64.52;101174.34;6270628;22;47303;-77
2022/03/16 11:22:27;;;;;;;;;34.75;32.00;;;;;15.23;64.46;101180.94;6271545;22;45940;-76
2022/03/16 11:25:05;;;;;;;;;35.25;33.00;;;;;15.25;64.21;101162.31;6270841;22;45518;-77
2022/03/16 11:27:46;;;;;;;;;43.00;34.00;;;;;15.32;64.06;101177.56;6271787;22;45655;-78
2022/03/16 11:30:14;;;;;;;;;40.75;32.75;;;;;15.38;64.08;101181.50;6270579;22;45646;-77
2022/03/16 11:32:42;;;;;;;;;73.00;57.00;;;;;15.41;63.87;101160.09;6271511;22;46084;-77
2022/03/16 11:35:17;;;;;;;;;88.75;75.50;;;;;15.47;63.60;101156.97;6270692;22;45537;-77
2022/03/16 11:37:48;;;;;;;;;37.00;32.75;;;;;15.51;63.70;101148.69;6271240;22;45646;-78
2022/03/16 11:40:22;;;;;;;;;37.25;31.25;;;;;15.54;63.33;101155.53;6243892;22;45424;-77
2022/03/16 11:43:11;;;;;;;;;38.75;33.75;;;;;15.59;63.42;101157.78;6270560;22;46281;-78
2022/03/16 11:45:50;;;;;;;;;65.00;50.25;;;;;15.61;63.29;101150.56;6243402;22;45761;-77
2022/03/16 11:48:51;;;;;;;;;15.00;9.75;;;;;15.69;63.28;101142.84;6270748;22;45612;-77
2022/03/16 11:54:45;;;;;;;;;35.00;32.25;;;;;15.82;62.81;101140.81;6178146;23;45650;-76
2022/03/16 11:57:11;;;;;;;;;29.25;27.75;;;;;15.81;62.71;101128.59;6177804;23;45770;-77
2022/03/16 11:59:45;;;;;;;;;35.50;30.75;;;;;15.90;62.51;101131.28;6177383;23;45724;-77
2022/03/16 12:02:16;;;;;;;;;34.50;32.00;;;;;15.90;62.33;101118.09;6153179;23;47234;-78
2022/03/16 12:04:44;;;;;;;;;34.25;31.25;;;;;15.95;62.39;101107.97;6178107;23;46047;-77
2022/03/16 12:10:45;;;;;;;;;34.50;32.00;;;;;16.10;62.52;101102.31;6177861;23;45529;-78
2022/03/16 12:13:12;;;;;;;;;36.00;32.50;;;;;16.17;62.39;101106.94;6177605;23;45749;-78
2022/03/16 12:15:39;;;;;;;;;34.50;30.00;;;;;16.24;62.02;101100.16;6177692;23;46082;-77
2022/03/16 12:18:07;;;;;;;;;34.50;30.75;;;;;16.28;61.59;101098.09;6177711;23;45569;-79
2022/03/16 12:20:38;;;;;;;;;33.50;30.75;;;;;16.30;61.32;101091.69;6178254;23;45908;-77
2022/03/16 12:26:27;;;;;;;;;27.25;24.00;;;;;16.35;61.37;101078.06;6177817;23;46031;-78
2022/03/16 12:29:07;;;;;;;;;33.25;27.75;;;;;16.40;61.27;101081.16;6246445;22;45558;-78
2022/03/16 12:31:34;;;;;;;;;33.25;28.25;;;;;16.49;60.93;101068.91;6272361;22;45368;-77
2022/03/16 12:34:00;;;;;;;;;32.75;30.00;;;;;16.49;60.90;101061.81;6273539;22;45535;-78
2022/03/16 12:36:31;;;;;;;;;36.00;32.75;;;;;16.54;60.76;101061.41;6272556;22;46287;-77
2022/03/16 12:39:08;;;;;;;;;30.00;26.00;;;;;16.53;60.70;101054.44;6272173;22;45440;-77
2022/03/16 12:44:20;;;;;;;;;33.25;27.25;;;;;16.60;60.44;101043.22;6273144;22;45625;-77
2022/03/16 12:47:07;;;;;;;;;31.75;30.00;;;;;16.64;60.55;101038.47;6273644;22;46107;-77
2022/03/16 12:49:44;;;;;;;;;32.50;27.75;;;;;16.67;60.42;101040.88;6272091;22;45713;-77
2022/03/16 12:52:10;;;;;;;;;28.00;26.25;;;;;16.70;60.40;101038.75;6271718;22;45408;-77